createdAt,value
2023-01-20T00:04:40.300Z,2.98
2023-01-20T00:14:42.363Z,3.05
2023-01-20T00:24:44.473Z,3.18
2023-01-20T00:34:46.556Z,3.05
2023-01-20T00:44:49.518Z,2.43
2023-01-20T00:54:51.766Z,3.16
2023-01-20T01:04:54.009Z,2.12
2023-01-20T01:14:56.196Z,3.04
2023-01-20T01:24:59.541Z,2.47
2023-01-20T01:35:01.807Z,2.77
2023-01-20T01:45:11.310Z,2.71
2023-01-20T01:55:15.263Z,2.83
2023-01-20T02:05:18.246Z,3.09
2023-01-20T02:15:26.453Z,3.29
2023-01-20T02:25:57.008Z,3.26
2023-01-20T02:36:03.651Z,2.07
2023-01-20T02:46:24.647Z,2.87
2023-01-20T02:56:28.854Z,3.41
2023-01-20T03:06:38.483Z,3.33
2023-01-20T03:16:41.140Z,3.55
2023-01-20T03:26:43.261Z,2.80
2023-01-20T03:36:46.059Z,2.95
2023-01-20T03:46:53.405Z,2.85
2023-01-20T03:57:04.191Z,3.50
2023-01-20T04:07:08.877Z,3.15
2023-01-20T04:17:11.501Z,2.84
2023-01-20T04:27:13.568Z,3.20
2023-01-20T04:37:15.623Z,2.78
2023-01-20T04:47:17.799Z,3.07
2023-01-20T04:57:20.087Z,2.97
2023-01-20T05:07:22.272Z,2.93
2023-01-20T05:17:24.588Z,2.92
2023-01-20T05:27:26.866Z,2.41
2023-01-20T05:37:29.145Z,2.11
2023-01-20T05:47:31.240Z,2.84
2023-01-20T05:57:33.535Z,3.16
2023-01-20T06:07:36.935Z,3.01
2023-01-20T06:17:39.215Z,2.80
2023-01-20T06:27:41.511Z,3.57
2023-01-20T06:37:43.613Z,2.62
2023-01-20T06:47:50.121Z,2.96
2023-01-20T06:57:52.404Z,2.80
2023-01-20T07:07:54.568Z,2.87
2023-01-20T07:17:56.855Z,2.59
2023-01-20T07:27:59.286Z,3.32
2023-01-20T07:38:01.439Z,3.47
2023-01-20T07:48:04.044Z,3.70
2023-01-20T07:58:06.172Z,3.27
2023-01-20T08:08:08.285Z,3.49
2023-01-20T08:18:10.398Z,3.05
2023-01-20T08:28:12.998Z,3.50
2023-01-20T08:38:15.320Z,3.24
2023-01-20T08:48:19.911Z,3.91
2023-01-20T08:58:24.571Z,3.62
2023-01-20T09:08:27.596Z,3.49
2023-01-20T09:18:34.274Z,3.41
2023-01-20T09:28:36.579Z,4.15
2023-01-20T09:38:57.512Z,3.49
2023-01-20T09:49:37.230Z,3.70
2023-01-20T09:59:44.285Z,3.48
2023-01-20T10:09:54.825Z,3.40
2023-01-20T10:20:04.776Z,2.72
2023-01-20T10:30:11.920Z,3.23
2023-01-20T10:40:19.949Z,3.74
2023-01-20T10:50:34.298Z,4.06
2023-01-20T11:00:36.959Z,3.58
2023-01-20T11:10:39.201Z,3.79
2023-01-20T11:21:02.594Z,4.31
2023-01-20T11:31:06.091Z,4.10
2023-01-20T11:41:25.152Z,3.57
2023-01-20T11:51:27.518Z,4.06
2023-01-20T12:01:31.575Z,4.18
2023-01-20T12:11:53.675Z,4.13
2023-01-20T12:21:59.279Z,4.31
2023-01-20T12:32:01.460Z,4.16
2023-01-20T12:42:22.334Z,4.95
2023-01-20T12:52:24.563Z,4.59
2023-01-20T13:02:45.547Z,3.91
2023-01-20T13:12:56.710Z,4.25
2023-01-20T13:23:01.600Z,4.05
2023-01-20T13:33:07.144Z,4.58
2023-01-20T13:43:24.021Z,4.47
2023-01-20T13:53:28.370Z,4.15
2023-01-20T14:04:04.589Z,4.73
2023-01-20T14:14:06.847Z,4.34
2023-01-20T14:24:30.660Z,4.82
2023-01-20T14:34:33.386Z,4.98
2023-01-20T14:44:35.584Z,4.27
2023-01-20T14:54:47.192Z,4.29
2023-01-20T15:04:50.382Z,4.76
2023-01-20T15:15:00.708Z,4.68
2023-01-20T15:25:07.956Z,4.99
2023-01-20T15:35:20.006Z,4.88
2023-01-20T15:45:22.403Z,4.77
2023-01-20T15:55:24.602Z,4.71
2023-01-20T16:05:28.117Z,3.91
2023-01-20T16:15:35.388Z,3.99
2023-01-20T16:25:39.163Z,4.17
2023-01-20T16:35:42.035Z,3.67
2023-01-20T16:45:45.210Z,3.76
2023-01-20T16:55:49.184Z,3.64
2023-01-20T17:05:51.453Z,3.56
2023-01-20T17:15:56.042Z,3.37
2023-01-20T17:25:58.689Z,2.84
2023-01-20T17:36:02.736Z,3.03
2023-01-20T17:46:19.130Z,2.99
2023-01-20T17:56:22.662Z,2.84
2023-01-20T18:06:26.411Z,2.64
2023-01-20T18:16:30.793Z,2.77
2023-01-20T18:26:34.301Z,2.94
2023-01-20T18:36:38.898Z,2.70
2023-01-20T18:46:41.451Z,2.68
2023-01-20T18:56:43.884Z,2.93
2023-01-20T19:06:46.349Z,2.48
2023-01-20T19:16:51.790Z,2.71
2023-01-20T19:26:54.075Z,2.31
2023-01-20T19:36:56.916Z,1.93
2023-01-20T19:47:04.225Z,2.22
2023-01-20T19:57:06.514Z,2.37
2023-01-20T20:07:09.124Z,2.40
2023-01-20T20:17:11.497Z,2.19
2023-01-20T20:27:13.928Z,2.10
2023-01-20T20:37:16.232Z,2.13
2023-01-20T20:47:18.718Z,1.53
2023-01-20T20:57:20.855Z,1.50
2023-01-20T21:07:23.122Z,0.88
2023-01-20T21:17:25.408Z,1.13
2023-01-20T21:27:31.277Z,1.47
2023-01-20T21:37:33.828Z,1.39
2023-01-20T21:47:36.053Z,1.18
2023-01-20T21:57:38.794Z,0.79
2023-01-20T22:07:40.966Z,0.58
2023-01-20T22:17:43.193Z,0.94
2023-01-20T22:27:48.134Z,0.96
2023-01-20T22:37:50.312Z,0.68
2023-01-20T22:47:52.591Z,0.99
2023-01-20T22:57:54.873Z,0.96
2023-01-20T23:07:57.053Z,0.41
2023-01-20T23:17:59.337Z,0.32
2023-01-20T23:28:01.729Z,0.27
2023-01-20T23:38:04.631Z,0.88
2023-01-20T23:48:07.747Z,0.29
2023-01-20T23:58:09.875Z,0.65
